createdAt,value
2022-09-13T00:03:28.794Z,85.37
2022-09-13T00:08:30.888Z,87.88
2022-09-13T00:13:33.186Z,85.66
2022-09-13T00:18:35.583Z,86.51
2022-09-13T00:23:38.169Z,88.97
2022-09-13T00:28:41.000Z,86.63
2022-09-13T00:33:43.096Z,86.63
2022-09-13T00:38:45.447Z,87.04
2022-09-13T00:43:58.146Z,88.52
2022-09-13T00:49:10.023Z,87.47
2022-09-13T00:54:15.057Z,87.34
2022-09-13T00:59:24.761Z,91.56
2022-09-13T01:04:29.349Z,88.05
2022-09-13T01:09:33.627Z,90.13
2022-09-13T01:14:37.487Z,91.17
2022-09-13T01:19:39.775Z,91.85
2022-09-13T01:25:12.869Z,92.64
2022-09-13T01:30:19.702Z,90.05
2022-09-13T01:35:25.246Z,90.58
2022-09-13T01:40:49.516Z,90.48
2022-09-13T01:46:16.224Z,91.79
2022-09-13T01:51:24.724Z,91.65
2022-09-13T01:56:34.313Z,94.92
2022-09-13T02:01:50.630Z,95.22
2022-09-13T02:06:58.544Z,100.00
2022-09-13T02:12:21.793Z,100.00
2022-09-13T02:17:28.845Z,100.00
2022-09-13T02:22:41.599Z,100.00
2022-09-13T02:27:49.437Z,100.00
2022-09-13T02:33:00.059Z,100.00
2022-09-13T02:38:22.264Z,100.00
2022-09-13T02:43:38.264Z,100.00
2022-09-13T02:49:20.650Z,100.00
2022-09-13T02:54:25.835Z,100.00
2022-09-13T02:59:28.595Z,100.00
2022-09-13T03:04:31.273Z,100.00
2022-09-13T03:09:34.408Z,100.00
2022-09-13T03:15:09.986Z,100.00
2022-09-13T03:20:22.445Z,100.00
2022-09-13T03:25:41.664Z,100.00
2022-09-13T03:30:55.862Z,100.00
2022-09-13T03:36:09.871Z,100.00
2022-09-13T03:41:20.278Z,100.00
2022-09-13T03:46:29.594Z,100.00
2022-09-13T03:51:32.907Z,100.00
2022-09-13T03:56:35.290Z,100.00
2022-09-13T04:01:37.561Z,100.00
2022-09-13T04:06:39.682Z,100.00
2022-09-13T04:11:41.878Z,100.00
2022-09-13T04:16:44.252Z,100.00
2022-09-13T04:21:49.167Z,100.00
2022-09-13T04:26:52.465Z,100.00
2022-09-13T04:31:55.896Z,99.49
2022-09-13T04:36:58.307Z,99.43
2022-09-13T04:42:00.745Z,99.00
2022-09-13T04:47:03.092Z,96.71
2022-09-13T04:52:05.441Z,97.78
2022-09-13T04:57:07.755Z,94.00
2022-09-13T05:02:10.733Z,95.72
2022-09-13T05:07:12.913Z,95.76
2022-09-13T05:12:17.517Z,92.95
2022-09-13T05:17:20.796Z,92.42
2022-09-13T05:22:25.645Z,91.82
2022-09-13T05:27:27.879Z,90.49
2022-09-13T05:32:32.139Z,92.32
2022-09-13T05:37:34.471Z,91.16
2022-09-13T05:42:36.622Z,89.37
2022-09-13T05:47:38.931Z,70.03
2022-09-13T05:52:41.216Z,50.18
2022-09-13T05:57:43.499Z,44.04
2022-09-13T06:02:45.688Z,53.80
2022-09-13T06:07:48.388Z,62.06
2022-09-13T06:12:52.199Z,53.51
2022-09-13T06:17:54.884Z,38.22
2022-09-13T06:22:57.132Z,33.06
2022-09-13T06:27:59.444Z,29.64
2022-09-13T06:33:01.851Z,29.23
2022-09-13T06:38:09.676Z,28.36
2022-09-13T06:43:13.320Z,27.79
2022-09-13T06:48:15.535Z,28.44
2022-09-13T06:53:17.810Z,29.27
2022-09-13T06:58:20.182Z,26.57
2022-09-13T07:03:22.350Z,28.53
2022-09-13T07:08:24.655Z,29.21
2022-09-13T07:13:26.937Z,32.30
2022-09-13T07:18:29.031Z,31.65
2022-09-13T07:23:32.375Z,32.01
2022-09-13T07:28:37.759Z,34.11
2022-09-13T07:33:41.594Z,34.40
2022-09-13T07:38:47.218Z,38.63
2022-09-13T07:43:50.148Z,38.57
2022-09-13T07:48:57.121Z,39.77
2022-09-13T07:54:01.907Z,43.93
2022-09-13T07:59:06.689Z,44.05
2022-09-13T08:04:11.484Z,42.72
2022-09-13T08:09:14.569Z,42.50
2022-09-13T08:14:18.769Z,41.42
2022-09-13T08:19:21.018Z,38.33
2022-09-13T08:24:23.438Z,37.75
2022-09-13T08:29:25.799Z,37.02
2022-09-13T08:34:27.927Z,37.08
2022-09-13T08:39:30.558Z,38.50
2022-09-13T08:44:48.091Z,41.97
2022-09-13T08:49:54.803Z,41.39
2022-09-13T08:54:58.998Z,43.02
2022-09-13T09:00:25.144Z,46.37
2022-09-13T09:05:30.914Z,48.49
2022-09-13T09:10:41.512Z,49.37
2022-09-13T09:15:49.358Z,48.54
2022-09-13T09:20:57.636Z,44.59
2022-09-13T09:26:21.723Z,45.51
2022-09-13T09:31:35.063Z,46.87
2022-09-13T09:36:44.943Z,47.33
2022-09-13T09:41:47.375Z,49.65
2022-09-13T09:47:17.811Z,47.18
2022-09-13T09:52:28.720Z,44.17
2022-09-13T09:57:51.677Z,44.75
2022-09-13T10:02:57.914Z,41.02
2022-09-13T10:08:07.254Z,37.91
2022-09-13T10:13:19.392Z,34.38
2022-09-13T10:23:47.619Z,35.31
2022-09-13T10:29:15.338Z,35.05
2022-09-13T10:34:31.267Z,37.83
2022-09-13T10:39:36.815Z,38.35
2022-09-13T10:44:59.894Z,41.75
2022-09-13T10:50:22.475Z,43.47
2022-09-13T10:55:29.316Z,43.39
2022-09-13T11:00:50.560Z,41.75
2022-09-13T11:06:14.861Z,41.74
2022-09-13T11:11:26.388Z,41.57
2022-09-13T11:17:06.243Z,43.91
2022-09-13T11:22:36.178Z,44.73
2022-09-13T11:27:53.487Z,43.80
2022-09-13T11:33:28.708Z,41.77
2022-09-13T11:38:46.219Z,40.57
2022-09-13T11:44:24.849Z,40.64
2022-09-13T11:49:46.927Z,40.37
2022-09-13T11:55:04.197Z,41.03
2022-09-13T12:00:21.040Z,36.13
2022-09-13T12:05:27.653Z,38.32
2022-09-13T12:10:46.940Z,39.08
2022-09-13T12:15:53.612Z,39.81
2022-09-13T12:21:12.414Z,38.62
2022-09-13T12:26:31.048Z,39.22
2022-09-13T12:31:33.425Z,38.75
2022-09-13T12:37:07.870Z,39.67
2022-09-13T12:42:18.387Z,39.14
2022-09-13T12:47:23.671Z,39.42
2022-09-13T12:52:39.845Z,39.34
2022-09-13T12:57:57.281Z,38.66
2022-09-13T13:03:12.149Z,37.64
2022-09-13T13:08:20.337Z,38.40
2022-09-13T13:13:33.807Z,39.82
2022-09-13T13:18:36.676Z,41.50
2022-09-13T13:23:40.422Z,40.91
2022-09-13T13:28:46.203Z,41.26
2022-09-13T13:34:04.384Z,40.77
2022-09-13T13:39:23.274Z,40.86
2022-09-13T13:44:26.932Z,40.36
2022-09-13T13:49:32.393Z,39.57
2022-09-13T13:54:44.474Z,39.91
2022-09-13T13:59:50.534Z,40.79
2022-09-13T14:05:23.733Z,40.64
2022-09-13T14:10:50.894Z,39.94
2022-09-13T14:16:09.490Z,39.73
2022-09-13T14:21:24.219Z,41.02
2022-09-13T14:26:26.582Z,42.32
2022-09-13T14:31:28.840Z,42.88
2022-09-13T14:36:31.019Z,43.18
2022-09-13T14:41:37.664Z,44.00
2022-09-13T14:46:44.530Z,43.51
2022-09-13T14:51:52.068Z,43.70
2022-09-13T14:56:58.837Z,44.04
2022-09-13T15:02:19.246Z,45.02
2022-09-13T15:07:27.721Z,44.91
2022-09-13T15:12:30.249Z,45.74
2022-09-13T15:18:11.314Z,48.14
2022-09-13T15:23:25.462Z,49.78
2022-09-13T15:28:31.848Z,55.82
2022-09-13T15:33:35.716Z,54.11
2022-09-13T15:38:37.870Z,49.91
2022-09-13T15:43:42.345Z,57.32
2022-09-13T15:48:57.249Z,58.33
2022-09-13T15:54:02.345Z,60.80
2022-09-13T15:59:04.609Z,65.33
2022-09-13T16:04:10.770Z,67.89
2022-09-13T16:09:27.962Z,70.60
2022-09-13T16:14:34.285Z,67.27
2022-09-13T16:19:36.731Z,71.80
2022-09-13T16:24:38.864Z,74.96
2022-09-13T16:29:44.333Z,82.28
2022-09-13T16:34:59.236Z,80.52
2022-09-13T16:40:01.772Z,82.35
2022-09-13T16:45:19.879Z,85.33
2022-09-13T16:50:22.064Z,88.12
2022-09-13T16:55:26.990Z,91.13
2022-09-13T17:00:30.400Z,92.72
2022-09-13T17:05:32.472Z,93.33
2022-09-13T17:10:34.772Z,92.64
2022-09-13T17:15:40.084Z,93.67
2022-09-13T17:20:47.875Z,94.13
2022-09-13T17:25:50.712Z,92.87
2022-09-13T17:30:52.875Z,92.07
2022-09-13T17:36:03.496Z,89.77
2022-09-13T17:41:09.794Z,90.74
2022-09-13T17:46:23.232Z,92.20
2022-09-13T17:51:31.318Z,90.46
2022-09-13T17:56:39.367Z,91.41
2022-09-13T18:01:44.200Z,92.43
2022-09-13T18:06:46.606Z,95.16
2022-09-13T18:11:49.225Z,97.73
2022-09-13T18:16:55.986Z,99.71
2022-09-13T18:21:58.511Z,100.00
2022-09-13T18:27:01.812Z,100.00
2022-09-13T18:32:03.895Z,100.00
2022-09-13T18:37:06.031Z,100.00
2022-09-13T18:42:08.486Z,100.00
2022-09-13T18:47:13.229Z,100.00
2022-09-13T18:52:15.974Z,100.00
2022-09-13T18:57:18.493Z,100.00
2022-09-13T19:02:20.700Z,100.00
2022-09-13T19:07:23.619Z,100.00
2022-09-13T19:12:25.992Z,100.00
2022-09-13T19:17:28.220Z,100.00
2022-09-13T19:22:30.490Z,100.00
2022-09-13T19:27:32.671Z,100.00
2022-09-13T19:32:35.224Z,100.00
2022-09-13T19:37:37.590Z,100.00
2022-09-13T19:42:40.011Z,100.00
2022-09-13T19:48:34.272Z,100.00
2022-09-13T19:53:07.591Z,100.00
2022-09-13T19:58:09.888Z,100.00
2022-09-13T20:03:19.703Z,100.00
2022-09-13T20:08:25.434Z,100.00
2022-09-13T20:13:27.690Z,100.00
2022-09-13T20:18:30.445Z,100.00
2022-09-13T20:23:34.742Z,100.00
2022-09-13T20:28:37.421Z,100.00
2022-09-13T20:33:43.351Z,100.00
2022-09-13T20:38:48.610Z,100.00
2022-09-13T20:43:51.745Z,100.00
2022-09-13T20:48:53.837Z,100.00
2022-09-13T20:54:00.696Z,100.00
2022-09-13T20:59:04.289Z,100.00
2022-09-13T21:04:07.069Z,100.00
2022-09-13T21:09:09.475Z,100.00
2022-09-13T21:14:11.653Z,100.00
2022-09-13T21:19:14.029Z,100.00
2022-09-13T21:24:16.298Z,100.00
2022-09-13T21:29:18.475Z,100.00
2022-09-13T21:34:20.627Z,100.00
2022-09-13T21:39:23.546Z,100.00
2022-09-13T21:44:28.299Z,100.00
2022-09-13T21:49:38.980Z,100.00
2022-09-13T21:54:44.550Z,100.00
2022-09-13T21:59:47.167Z,100.00
2022-09-13T22:04:49.222Z,100.00
2022-09-13T22:09:51.397Z,100.00
2022-09-13T22:14:53.658Z,100.00
2022-09-13T22:19:55.735Z,100.00
2022-09-13T22:24:57.798Z,100.00
2022-09-13T22:30:00.199Z,100.00
2022-09-13T22:35:02.517Z,100.00
2022-09-13T22:40:05.496Z,100.00
2022-09-13T22:45:09.302Z,100.00
2022-09-13T22:50:11.859Z,100.00
2022-09-13T22:55:14.158Z,100.00
2022-09-13T23:00:16.358Z,100.00
2022-09-13T23:05:18.956Z,100.00
2022-09-13T23:10:21.470Z,100.00
2022-09-13T23:15:24.724Z,100.00
2022-09-13T23:20:26.803Z,100.00
2022-09-13T23:25:29.174Z,100.00
2022-09-13T23:30:31.395Z,100.00
2022-09-13T23:35:33.486Z,100.00
2022-09-13T23:40:36.223Z,100.00
2022-09-13T23:45:38.336Z,100.00
2022-09-13T23:50:40.945Z,100.00
2022-09-13T23:55:43.198Z,100.00
